createdAt,value
2022-09-28T00:01:26.164Z,99305.97
2022-09-28T00:06:32.428Z,99286.31
2022-09-28T00:11:37.733Z,99193.56
2022-09-28T00:16:46.681Z,99129.69
2022-09-28T00:21:52.370Z,98814.16
2022-09-28T00:26:58.143Z,99255.94
2022-09-28T00:32:03.383Z,99283.50
2022-09-28T00:37:09.010Z,99279.22
2022-09-28T00:42:18.224Z,99266.44
2022-09-28T00:47:49.422Z,99249.47
2022-09-28T00:52:56.663Z,99051.63
2022-09-28T00:58:05.017Z,99001.00
2022-09-28T01:03:09.061Z,99096.56
2022-09-28T01:08:14.229Z,98961.81
2022-09-28T01:13:19.348Z,99160.69
2022-09-28T01:18:31.280Z,99048.41
2022-09-28T01:23:57.198Z,99254.31
2022-09-28T01:29:09.978Z,99194.94
2022-09-28T01:34:19.417Z,99254.00
2022-09-28T01:39:30.072Z,99255.03
2022-09-28T01:44:40.035Z,99105.22
2022-09-28T01:49:48.582Z,99201.56
2022-09-28T01:54:57.715Z,98929.66
2022-09-28T02:00:10.517Z,99250.16
2022-09-28T02:05:25.479Z,99254.47
2022-09-28T02:10:33.972Z,99249.19
2022-09-28T02:15:46.713Z,99250.84
2022-09-28T02:20:53.885Z,99252.25
2022-09-28T02:26:03.158Z,99210.97
2022-09-28T02:31:08.482Z,99229.63
2022-09-28T02:36:12.405Z,99246.25
2022-09-28T02:41:28.044Z,99249.00
2022-09-28T02:46:40.708Z,99062.91
2022-09-28T02:52:09.897Z,99038.19
2022-09-28T02:57:27.194Z,99250.66
2022-09-28T03:02:35.650Z,98902.31
2022-09-28T03:07:42.715Z,99051.31
2022-09-28T03:12:47.430Z,99195.78
2022-09-28T03:17:55.442Z,99261.72
2022-09-28T03:28:22.622Z,99225.31
2022-09-28T03:33:26.971Z,99178.06
2022-09-28T03:38:30.233Z,99019.78
2022-09-28T03:43:32.947Z,99059.34
2022-09-28T03:48:42.057Z,99172.13
2022-09-28T03:53:46.429Z,99261.53
2022-09-28T03:58:49.117Z,99261.16
2022-09-28T04:03:56.219Z,99235.19
2022-09-28T04:09:00.903Z,99254.47
2022-09-28T04:14:05.170Z,99195.53
2022-09-28T04:19:11.085Z,99254.53
2022-09-28T04:24:46.413Z,99194.91
2022-09-28T04:29:49.268Z,99258.97
2022-09-28T04:34:54.128Z,99071.88
2022-09-28T04:39:57.274Z,99199.09
2022-09-28T04:45:00.922Z,99252.78
2022-09-28T04:50:05.768Z,99257.81
2022-09-28T04:55:15.049Z,99259.19
2022-09-28T05:00:17.873Z,99194.25
2022-09-28T05:05:44.645Z,99266.44
2022-09-28T05:11:10.795Z,99142.59
2022-09-28T05:16:16.129Z,99264.69
2022-09-28T05:21:39.863Z,99158.81
2022-09-28T05:26:42.606Z,99254.69
2022-09-28T05:31:46.796Z,99083.31
2022-09-28T05:37:11.865Z,99270.72
2022-09-28T05:42:14.602Z,99196.69
2022-09-28T05:47:18.725Z,99267.19
2022-09-28T05:52:27.038Z,99253.22
2022-09-28T05:57:31.303Z,99225.91
2022-09-28T06:02:34.144Z,99271.00
2022-09-28T06:07:38.767Z,99284.75
2022-09-28T06:12:42.237Z,99284.69
2022-09-28T06:17:57.114Z,99290.44
2022-09-28T06:23:35.960Z,99293.53
2022-09-28T06:28:38.806Z,99305.97
2022-09-28T06:33:48.081Z,99291.22
2022-09-28T06:39:00.894Z,99133.25
2022-09-28T06:44:06.891Z,99311.06
2022-09-28T06:49:30.222Z,99282.00
2022-09-28T06:55:09.461Z,99240.88
2022-09-28T07:00:32.291Z,99312.41
2022-09-28T07:05:37.763Z,99237.47
2022-09-28T07:11:01.479Z,99090.22
2022-09-28T07:16:24.091Z,99261.44
2022-09-28T07:21:30.766Z,99019.25
2022-09-28T07:26:38.818Z,98922.88
2022-09-28T07:31:50.871Z,99133.16
2022-09-28T07:37:19.431Z,99373.03
2022-09-28T07:42:26.269Z,99364.56
2022-09-28T07:47:34.673Z,99305.84
2022-09-28T07:53:16.048Z,99343.91
2022-09-28T07:58:49.704Z,99391.19
2022-09-28T08:04:15.082Z,99395.56
2022-09-28T08:09:25.613Z,99333.19
2022-09-28T08:15:14.333Z,99343.41
2022-09-28T08:20:59.876Z,99402.25
2022-09-28T08:26:02.877Z,99417.19
2022-09-28T08:31:07.374Z,99264.00
2022-09-28T08:37:04.719Z,99094.78
2022-09-28T08:42:59.476Z,99193.88
2022-09-28T08:48:36.310Z,99163.06
2022-09-28T08:54:11.056Z,99438.41
2022-09-28T08:59:30.957Z,99311.56
2022-09-28T09:04:41.219Z,99425.50
2022-09-28T09:10:09.731Z,99323.16
2022-09-28T09:15:41.651Z,99417.13
2022-09-28T09:20:58.556Z,99248.06
2022-09-28T09:26:25.974Z,99451.97
2022-09-28T09:31:45.788Z,99451.97
2022-09-28T09:37:01.457Z,99460.75
2022-09-28T09:42:41.815Z,99495.50
2022-09-28T09:48:08.995Z,99464.94
2022-09-28T09:53:21.450Z,99386.19
2022-09-28T09:58:32.457Z,99438.72
2022-09-28T10:03:58.970Z,99383.91
2022-09-28T10:09:06.731Z,99382.53
2022-09-28T10:14:16.748Z,99442.19
2022-09-28T10:19:35.144Z,99465.03
2022-09-28T10:24:57.535Z,99470.63
2022-09-28T10:30:15.849Z,99471.22
2022-09-28T10:43:07.853Z,99188.78
2022-09-28T10:49:05.944Z,99269.03
2022-09-28T10:54:28.878Z,99483.66
2022-09-28T11:00:27.813Z,99478.53
2022-09-28T11:06:21.520Z,99474.41
2022-09-28T11:11:24.500Z,99478.66
2022-09-28T11:16:36.983Z,99490.09
2022-09-28T11:28:58.406Z,99330.81
2022-09-28T11:34:30.995Z,99486.06
2022-09-28T11:39:55.811Z,98979.53
2022-09-28T11:45:12.997Z,99494.53
2022-09-28T11:50:24.812Z,99455.38
2022-09-28T11:55:36.053Z,99251.00
2022-09-28T12:00:49.425Z,99237.88
2022-09-28T12:06:01.031Z,99293.31
2022-09-28T12:11:09.824Z,99015.00
2022-09-28T12:22:11.335Z,99480.28
2022-09-28T12:27:24.588Z,99462.88
2022-09-28T12:32:35.604Z,99267.97
2022-09-28T12:37:54.694Z,99295.00
2022-09-28T12:43:14.349Z,99254.38
2022-09-28T12:48:37.341Z,99301.66
2022-09-28T12:53:59.802Z,99006.84
2022-09-28T12:59:19.492Z,99302.16
2022-09-28T13:05:21.685Z,99198.41
2022-09-28T13:10:39.894Z,99171.53
2022-09-28T13:15:50.115Z,99407.31
2022-09-28T13:21:39.739Z,99383.91
2022-09-28T13:35:16.246Z,98971.94
2022-09-28T13:40:54.299Z,99446.94
2022-09-28T13:46:10.389Z,99446.47
2022-09-28T13:51:33.915Z,99456.13
2022-09-28T13:56:44.667Z,99399.88
2022-09-28T14:02:00.648Z,99238.28
2022-09-28T14:07:13.251Z,99381.28
2022-09-28T14:12:31.691Z,99416.59
2022-09-28T14:18:00.099Z,98979.97
2022-09-28T14:23:40.684Z,99004.88
2022-09-28T14:28:55.564Z,99048.81
2022-09-28T14:41:12.739Z,99501.63
2022-09-28T14:46:42.694Z,99285.56
2022-09-28T14:52:05.836Z,99275.38
2022-09-28T14:57:18.444Z,99503.56
2022-09-28T15:02:26.096Z,99236.25
2022-09-28T15:07:43.719Z,99391.59
2022-09-28T15:12:49.140Z,99498.25
2022-09-28T15:18:02.518Z,99448.03
2022-09-28T15:23:06.608Z,99452.22
2022-09-28T15:28:24.379Z,99519.03
2022-09-28T15:33:46.510Z,99488.59
2022-09-28T15:38:56.676Z,99474.81
2022-09-28T15:44:33.307Z,99542.72
2022-09-28T15:49:44.809Z,99538.13
2022-09-28T15:54:47.784Z,99545.44
2022-09-28T15:59:57.059Z,99549.22
2022-09-28T16:05:01.561Z,99514.84
2022-09-28T16:10:26.966Z,99550.88
2022-09-28T16:15:35.771Z,99548.28
2022-09-28T16:20:40.569Z,99566.97
2022-09-28T16:25:52.711Z,99515.38
2022-09-28T16:31:04.667Z,99582.38
2022-09-28T16:36:13.997Z,99480.13
2022-09-28T16:41:22.085Z,99552.16
2022-09-28T16:46:45.719Z,99544.94
2022-09-28T16:52:18.592Z,99587.38
2022-09-28T16:57:37.055Z,99589.81
2022-09-28T17:03:04.248Z,99544.81
2022-09-28T17:08:35.518Z,99600.97
2022-09-28T17:14:13.131Z,99607.09
2022-09-28T17:20:24.764Z,99606.91
2022-09-28T17:25:48.331Z,99087.34
2022-09-28T17:31:27.734Z,99519.16
2022-09-28T17:36:54.997Z,99595.50
2022-09-28T17:42:31.404Z,99617.94
2022-09-28T17:47:52.317Z,99560.47
2022-09-28T17:53:29.254Z,99519.63
2022-09-28T17:58:46.311Z,99408.06
2022-09-28T18:04:47.123Z,99598.09
2022-09-28T18:10:23.586Z,99003.22
2022-09-28T18:16:03.776Z,99304.88
2022-09-28T18:28:23.102Z,99288.50
2022-09-28T18:33:29.144Z,99161.16
2022-09-28T18:38:43.563Z,99230.59
2022-09-28T18:50:29.939Z,99068.84
2022-09-28T18:55:46.213Z,99315.75
2022-09-28T19:01:08.479Z,99506.47
2022-09-28T19:06:42.699Z,99529.22
2022-09-28T19:12:33.825Z,99642.53
2022-09-28T19:18:11.057Z,99167.56
2022-09-28T19:24:07.375Z,99172.63
2022-09-28T19:29:24.716Z,99332.34
2022-09-28T19:40:43.341Z,99650.09
2022-09-28T19:52:44.681Z,99278.09
2022-09-28T19:57:56.052Z,99365.66
2022-09-28T20:03:06.888Z,99290.19
2022-09-28T20:08:12.456Z,99470.56
2022-09-28T20:20:32.587Z,99356.53
2022-09-28T20:26:32.727Z,99590.19
2022-09-28T20:32:02.168Z,99378.31
2022-09-28T20:38:20.163Z,99684.94
2022-09-28T20:50:09.840Z,99496.34
2022-09-28T20:55:24.168Z,99704.16
2022-09-28T21:00:30.348Z,99279.63
2022-09-28T21:05:53.018Z,99440.13
2022-09-28T21:10:57.675Z,99607.13
2022-09-28T21:16:03.318Z,99681.81
2022-09-28T21:21:28.522Z,99134.06
2022-09-28T21:27:01.749Z,99694.84
2022-09-28T21:32:11.127Z,99596.09
2022-09-28T21:37:13.815Z,99579.66
2022-09-28T21:42:18.222Z,99690.03
2022-09-28T21:47:21.075Z,99510.06
2022-09-28T21:52:23.791Z,99661.97
2022-09-28T21:57:27.756Z,99695.41
2022-09-28T22:02:31.991Z,99716.44
2022-09-28T22:07:45.195Z,99703.94
2022-09-28T22:12:50.082Z,99426.72
2022-09-28T22:17:54.354Z,99483.97
2022-09-28T22:22:57.184Z,99717.59
2022-09-28T22:28:01.614Z,99718.22
2022-09-28T22:33:04.354Z,99665.88
2022-09-28T22:38:07.009Z,99642.44
2022-09-28T22:43:10.941Z,99714.22
2022-09-28T22:48:14.148Z,99571.50
2022-09-28T22:53:16.827Z,99717.88
2022-09-28T22:58:23.567Z,99731.25
2022-09-28T23:03:26.215Z,99728.63
2022-09-28T23:08:32.095Z,99721.06
2022-09-28T23:13:38.247Z,99678.50
2022-09-28T23:18:41.737Z,99719.31
2022-09-28T23:23:44.921Z,99722.34
2022-09-28T23:28:49.098Z,99702.47
2022-09-28T23:33:52.340Z,99723.78
2022-09-28T23:38:55.058Z,99731.44
2022-09-28T23:43:58.988Z,99703.47
2022-09-28T23:49:01.779Z,99722.44
2022-09-28T23:54:09.210Z,99688.44
2022-09-28T23:59:13.253Z,99712.63
